createdAt,value
2022-09-06T00:04:23.357Z,11.15
2022-09-06T00:09:25.689Z,11.26
2022-09-06T00:14:27.817Z,11.41
2022-09-06T00:19:30.078Z,10.76
2022-09-06T00:24:32.389Z,10.56
2022-09-06T00:29:35.261Z,10.18
2022-09-06T00:34:37.574Z,10.53
2022-09-06T00:39:39.873Z,10.47
2022-09-06T00:44:42.100Z,10.62
2022-09-06T00:49:49.851Z,10.89
2022-09-06T00:54:53.055Z,10.65
2022-09-06T00:59:56.456Z,10.97
2022-09-06T01:04:58.929Z,11.07
2022-09-06T01:10:25.672Z,11.10
2022-09-06T01:15:53.850Z,11.26
2022-09-06T01:21:07.626Z,11.27
2022-09-06T01:26:37.367Z,11.30
2022-09-06T01:31:47.084Z,11.10
2022-09-06T01:37:13.252Z,10.85
2022-09-06T01:42:23.809Z,10.53
2022-09-06T01:47:47.744Z,10.69
2022-09-06T01:53:09.513Z,10.59
2022-09-06T01:58:35.719Z,10.14
2022-09-06T02:03:48.002Z,10.21
2022-09-06T02:09:12.460Z,10.56
2022-09-06T02:14:41.268Z,10.85
2022-09-06T02:19:55.522Z,10.65
2022-09-06T02:25:00.845Z,10.88
2022-09-06T02:30:05.822Z,10.39
2022-09-06T02:35:16.405Z,9.93
2022-09-06T02:40:19.383Z,9.92
2022-09-06T02:45:21.711Z,9.95
2022-09-06T02:50:24.061Z,10.18
2022-09-06T02:55:26.305Z,9.78
2022-09-06T03:00:29.884Z,10.10
2022-09-06T03:05:32.994Z,10.22
2022-09-06T03:10:35.347Z,10.29
2022-09-06T03:15:37.605Z,10.82
2022-09-06T03:20:39.900Z,10.60
2022-09-06T03:25:43.433Z,10.76
2022-09-06T03:30:47.604Z,10.87
2022-09-06T03:35:56.120Z,11.13
2022-09-06T03:40:58.974Z,11.08
2022-09-06T03:46:01.167Z,11.06
2022-09-06T03:51:03.390Z,10.96
2022-09-06T03:56:05.920Z,10.87
2022-09-06T04:01:12.609Z,10.97
2022-09-06T04:06:15.398Z,10.72
2022-09-06T04:11:17.731Z,10.08
2022-09-06T04:16:20.166Z,10.42
2022-09-06T04:21:23.222Z,10.72
2022-09-06T04:26:25.517Z,10.60
2022-09-06T04:31:27.889Z,10.97
2022-09-06T04:36:30.160Z,10.73
2022-09-06T04:41:32.273Z,11.17
2022-09-06T04:46:34.590Z,11.29
2022-09-06T04:51:39.429Z,11.39
2022-09-06T04:56:41.573Z,11.75
2022-09-06T05:01:43.724Z,12.01
2022-09-06T05:06:46.060Z,12.06
2022-09-06T05:11:48.303Z,12.50
2022-09-06T05:16:50.733Z,13.23
2022-09-06T05:21:53.009Z,13.58
2022-09-06T05:26:55.646Z,13.54
2022-09-06T05:31:58.116Z,13.97
2022-09-06T05:37:00.473Z,14.11
2022-09-06T05:42:06.856Z,14.54
2022-09-06T05:47:09.129Z,17.13
2022-09-06T05:52:11.355Z,22.89
2022-09-06T05:57:13.822Z,25.50
2022-09-06T06:02:16.219Z,27.53
2022-09-06T06:07:18.645Z,28.22
2022-09-06T06:12:20.777Z,28.33
2022-09-06T06:17:23.291Z,29.65
2022-09-06T06:22:25.638Z,31.47
2022-09-06T06:27:27.805Z,32.12
2022-09-06T06:32:30.068Z,32.93
2022-09-06T06:37:33.576Z,32.80
2022-09-06T06:42:37.940Z,32.92
2022-09-06T06:47:40.514Z,32.83
2022-09-06T06:52:43.061Z,32.35
2022-09-06T06:57:45.326Z,31.59
2022-09-06T07:02:47.413Z,30.19
2022-09-06T07:07:49.773Z,28.50
2022-09-06T07:12:52.209Z,27.30
2022-09-06T07:18:03.009Z,27.15
2022-09-06T07:28:28.471Z,26.34
2022-09-06T07:33:44.812Z,26.31
2022-09-06T07:38:51.208Z,25.85
2022-09-06T07:43:55.090Z,25.89
2022-09-06T07:48:57.454Z,27.19
2022-09-06T07:54:28.665Z,27.54
2022-09-06T07:59:22.325Z,27.19
2022-09-06T08:04:24.697Z,27.60
2022-09-06T08:09:27.025Z,27.86
2022-09-06T08:14:29.297Z,28.70
2022-09-06T08:19:31.518Z,28.70
2022-09-06T08:24:35.962Z,29.34
2022-09-06T08:35:05.895Z,29.85
2022-09-06T08:40:08.883Z,30.20
2022-09-06T08:45:15.998Z,30.25
2022-09-06T08:50:19.817Z,30.09
2022-09-06T08:55:46.674Z,30.26
2022-09-06T09:00:58.784Z,30.73
2022-09-06T09:06:03.783Z,31.43
2022-09-06T09:11:19.303Z,31.29
2022-09-06T09:16:23.015Z,30.40
2022-09-06T09:21:30.455Z,31.07
2022-09-06T09:26:44.564Z,30.27
2022-09-06T09:31:54.857Z,29.20
2022-09-06T09:42:49.783Z,29.54
2022-09-06T09:47:52.195Z,28.81
2022-09-06T09:52:54.755Z,28.68
2022-09-06T09:57:57.182Z,28.22
2022-09-06T10:03:01.753Z,27.73
2022-09-06T10:08:04.133Z,27.20
2022-09-06T10:13:31.623Z,27.61
2022-09-06T10:18:42.685Z,27.31
2022-09-06T10:29:56.285Z,27.35
2022-09-06T10:35:20.334Z,28.76
2022-09-06T10:40:33.746Z,29.33
2022-09-06T10:46:11.866Z,29.08
2022-09-06T10:51:35.064Z,28.24
2022-09-06T10:57:05.091Z,28.30
2022-09-06T11:02:30.922Z,27.58
2022-09-06T11:07:40.475Z,27.21
2022-09-06T11:12:55.020Z,27.28
2022-09-06T11:18:10.026Z,27.60
2022-09-06T11:23:30.798Z,27.53
2022-09-06T11:28:58.522Z,27.40
2022-09-06T11:34:10.405Z,27.78
2022-09-06T11:39:15.137Z,27.86
2022-09-06T11:44:55.573Z,27.42
2022-09-06T11:49:57.937Z,27.12
2022-09-06T11:55:00.126Z,26.77
2022-09-06T12:00:04.831Z,26.93
2022-09-06T12:05:09.862Z,27.18
2022-09-06T12:10:30.495Z,27.02
2022-09-06T12:15:46.668Z,26.94
2022-09-06T12:20:48.971Z,27.27
2022-09-06T12:25:55.218Z,27.37
2022-09-06T12:30:57.807Z,26.81
2022-09-06T12:36:14.833Z,27.07
2022-09-06T12:46:39.558Z,26.63
2022-09-06T12:51:43.026Z,26.45
2022-09-06T12:56:45.215Z,26.31
2022-09-06T13:02:00.801Z,26.34
2022-09-06T13:07:04.463Z,26.03
2022-09-06T13:12:25.090Z,25.74
2022-09-06T13:17:29.976Z,25.85
2022-09-06T13:22:47.616Z,25.90
2022-09-06T13:27:58.356Z,25.60
2022-09-06T13:33:02.217Z,25.71
2022-09-06T13:38:41.288Z,25.34
2022-09-06T13:43:46.273Z,25.28
2022-09-06T13:48:48.581Z,24.88
2022-09-06T13:53:51.289Z,24.71
2022-09-06T13:58:53.521Z,24.46
2022-09-06T14:03:55.858Z,24.51
2022-09-06T14:09:13.759Z,24.31
2022-09-06T14:14:18.107Z,24.51
2022-09-06T14:19:20.502Z,24.36
2022-09-06T14:24:22.885Z,24.30
2022-09-06T14:29:25.210Z,24.22
2022-09-06T14:34:28.047Z,24.22
2022-09-06T14:39:30.321Z,23.88
2022-09-06T14:44:32.550Z,23.89
2022-09-06T14:49:34.932Z,24.02
2022-09-06T14:54:37.222Z,23.96
2022-09-06T14:59:39.535Z,23.73
2022-09-06T15:04:42.147Z,23.74
2022-09-06T15:09:44.312Z,23.59
2022-09-06T15:14:46.863Z,23.60
2022-09-06T15:19:49.348Z,23.23
2022-09-06T15:24:51.745Z,23.28
2022-09-06T15:29:53.975Z,23.18
2022-09-06T15:34:56.417Z,23.08
2022-09-06T15:39:59.394Z,22.93
2022-09-06T15:45:01.736Z,22.65
2022-09-06T15:50:04.301Z,22.75
2022-09-06T15:55:25.681Z,22.39
2022-09-06T16:00:28.045Z,22.16
2022-09-06T16:10:52.811Z,21.48
2022-09-06T16:16:02.605Z,21.21
2022-09-06T16:21:13.169Z,20.91
2022-09-06T16:26:20.596Z,20.66
2022-09-06T16:31:24.662Z,20.17
2022-09-06T16:36:28.527Z,19.68
2022-09-06T16:41:42.817Z,19.41
2022-09-06T16:46:47.235Z,18.88
2022-09-06T16:51:50.800Z,18.65
2022-09-06T16:56:53.110Z,18.43
2022-09-06T17:01:56.308Z,18.40
2022-09-06T17:06:58.597Z,17.64
2022-09-06T17:12:00.734Z,17.61
2022-09-06T17:17:05.729Z,17.49
2022-09-06T17:22:10.537Z,17.36
2022-09-06T17:27:13.073Z,17.23
2022-09-06T17:32:15.272Z,16.91
2022-09-06T17:37:17.549Z,16.57
2022-09-06T17:42:20.013Z,16.23
2022-09-06T17:47:22.355Z,16.14
2022-09-06T17:52:24.862Z,15.95
2022-09-06T17:57:27.316Z,16.20
2022-09-06T18:02:29.669Z,16.20
2022-09-06T18:07:31.908Z,15.99
2022-09-06T18:12:34.600Z,15.93
2022-09-06T18:17:36.997Z,15.91
2022-09-06T18:22:40.605Z,15.56
2022-09-06T18:27:42.807Z,14.61
2022-09-06T18:32:45.210Z,14.73
2022-09-06T18:37:47.494Z,14.71
2022-09-06T18:42:50.127Z,14.66
2022-09-06T18:47:52.580Z,14.98
2022-09-06T18:52:55.981Z,15.13
2022-09-06T18:57:58.699Z,15.54
2022-09-06T19:03:01.265Z,15.36
2022-09-06T19:08:05.542Z,15.48
2022-09-06T19:13:08.118Z,15.25
2022-09-06T19:18:10.544Z,15.31
2022-09-06T19:23:13.038Z,15.36
2022-09-06T19:28:15.177Z,15.02
2022-09-06T19:33:17.966Z,15.09
2022-09-06T19:38:20.538Z,15.37
2022-09-06T19:43:22.689Z,14.88
2022-09-06T19:48:26.035Z,15.08
2022-09-06T19:53:29.782Z,15.39
2022-09-06T19:58:33.194Z,15.56
2022-09-06T20:03:38.154Z,15.04
2022-09-06T20:08:40.711Z,14.80
2022-09-06T20:13:43.090Z,14.91
2022-09-06T20:18:45.691Z,14.83
2022-09-06T20:23:52.404Z,14.46
2022-09-06T20:28:56.973Z,14.31
2022-09-06T20:34:01.987Z,13.65
2022-09-06T20:39:04.899Z,13.66
2022-09-06T20:44:07.169Z,13.40
2022-09-06T20:49:09.470Z,13.37
2022-09-06T20:54:12.026Z,13.30
2022-09-06T20:59:17.510Z,12.93
2022-09-06T21:04:19.915Z,12.86
2022-09-06T21:09:22.129Z,12.99
2022-09-06T21:14:24.384Z,12.70
2022-09-06T21:19:26.824Z,12.68
2022-09-06T21:24:29.201Z,12.60
2022-09-06T21:29:31.364Z,12.76
2022-09-06T21:34:33.551Z,12.74
2022-09-06T21:39:35.766Z,12.76
2022-09-06T21:44:38.264Z,12.59
2022-09-06T21:49:40.446Z,12.56
2022-09-06T21:54:42.710Z,12.41
2022-09-06T21:59:45.203Z,12.44
2022-09-06T22:04:47.505Z,12.22
2022-09-06T22:09:49.898Z,12.32
2022-09-06T22:14:52.086Z,11.61
2022-09-06T22:19:54.289Z,12.01
2022-09-06T22:24:56.749Z,12.12
2022-09-06T22:29:59.045Z,11.93
2022-09-06T22:35:01.268Z,11.61
2022-09-06T22:40:04.216Z,11.66
2022-09-06T22:45:06.784Z,11.43
2022-09-06T22:50:09.694Z,11.28
2022-09-06T22:55:11.992Z,11.13
2022-09-06T23:00:14.409Z,11.51
2022-09-06T23:05:17.894Z,11.59
2022-09-06T23:10:20.155Z,11.76
2022-09-06T23:15:22.989Z,11.45
2022-09-06T23:20:25.709Z,11.34
2022-09-06T23:25:28.329Z,11.40
2022-09-06T23:30:30.861Z,11.33
2022-09-06T23:35:32.974Z,11.13
2022-09-06T23:40:35.300Z,10.90
2022-09-06T23:45:37.655Z,11.19
2022-09-06T23:50:39.973Z,11.56
2022-09-06T23:55:44.385Z,11.62
